Time;durP1;ratioP1;P1;durP2;ratioP2;P2;SDS_P1;SDS_P2;PMS_P1;PMS_P2;Temp;Humidity;BMP_temperature;BMP_pressure;BME280_temperature;BME280_humidity;BME280_pressure;Samples;Min_cycle;Max_cycle;Signal;HPM_P1;HPM_P2
2021/12/06 00:01:48;;;;;;;18.77;8.80;;;;;;;1.29;100.00;97244.06;4909553;28;20040;-55
2021/12/06 00:04:21;;;;;;;20.58;9.32;;;;;;;1.06;100.00;97257.25;4908437;29;20064;-55
2021/12/06 00:06:59;;;;;;;18.98;8.82;;;;;;;1.27;100.00;97250.94;4909298;29;20131;-55
2021/12/06 00:09:35;;;;;;;23.88;9.77;;;;;;;0.99;100.00;97252.22;4910358;29;20046;-55
2021/12/06 00:12:02;;;;;;;22.67;8.95;;;;;;;1.10;100.00;97258.03;4910251;28;20036;-55
2021/12/06 00:14:34;;;;;;;21.42;9.18;;;;;;;1.34;100.00;97247.41;4908450;29;20035;-55
2021/12/06 00:17:11;;;;;;;18.00;8.40;;;;;;;1.55;100.00;97253.03;4909286;29;20047;-55
2021/12/06 00:19:38;;;;;;;18.83;8.65;;;;;;;1.10;100.00;97258.03;4910286;29;20473;-57
2021/12/06 00:22:11;;;;;;;21.38;8.60;;;;;;;1.22;100.00;97255.28;4910016;28;20104;-56
2021/12/06 00:24:36;;;;;;;;;;;;;;;1.08;100.00;97254.66;4911254;29;20032;-56
2021/12/06 00:27:02;;;;;;;21.27;8.32;;;;;;;1.08;100.00;97262.34;4910052;29;19958;-55
2021/12/06 00:29:43;;;;;;;24.23;9.18;;;;;;;1.17;100.00;97264.78;4908727;29;20036;-55
2021/12/06 00:32:09;;;;;;;22.00;9.00;;;;;;;1.24;100.00;97258.69;4909990;29;20032;-56
2021/12/06 00:34:35;;;;;;;18.88;8.88;;;;;;;1.36;100.00;97265.38;4910580;29;20036;-55
2021/12/06 00:37:17;;;;;;;17.20;8.20;;;;;;;1.26;100.00;97261.22;4910216;29;20068;-55
2021/12/06 00:40:03;;;;;;;20.07;8.57;;;;;;;1.51;100.00;97265.09;4909474;29;20191;-55
2021/12/06 00:42:33;;;;;;;14.82;7.65;;;;;;;1.10;100.00;97263.19;4909532;29;20288;-55
2021/12/06 00:45:07;;;;;;;18.67;8.68;;;;;;;1.46;100.00;97255.78;4908795;29;20754;-54
2021/12/06 00:47:35;;;;;;;17.60;8.07;;;;;;;1.47;100.00;97265.16;4910442;29;20051;-55
2021/12/06 00:50:10;;;;;;;18.10;8.25;;;;;;;1.49;100.00;97271.13;4912338;29;20084;-54
2021/12/06 00:52:38;;;;;;;17.17;8.45;;;;;;;1.28;100.00;97273.16;4913482;29;20130;-55
2021/12/06 00:55:05;;;;;;;18.02;8.48;;;;;;;1.51;100.00;97269.41;4914425;29;20028;-56
2021/12/06 00:57:30;;;;;;;21.10;8.55;;;;;;;1.51;100.00;97264.25;4913968;29;20053;-54
2021/12/06 00:59:55;;;;;;;18.88;8.50;;;;;;;1.55;100.00;97268.47;4912717;29;20113;-55
2021/12/06 01:02:21;;;;;;;19.33;8.65;;;;;;;1.56;100.00;97272.72;4913051;28;20127;-54
2021/12/06 01:04:48;;;;;;;20.90;8.02;;;;;;;1.47;100.00;97278.88;4914075;29;20474;-54
2021/12/06 01:07:14;;;;;;;17.52;8.57;;;;;;;1.30;100.00;97276.56;4912060;29;20062;-55
2021/12/06 01:09:41;;;;;;;19.67;8.13;;;;;;;1.20;100.00;97280.16;4911984;29;20750;-55
2021/12/06 01:12:08;;;;;;;16.98;7.65;;;;;;;1.48;100.00;97274.59;4916233;28;20087;-54
2021/12/06 01:14:34;;;;;;;15.73;7.70;;;;;;;1.51;100.00;97285.66;4912587;29;20394;-54
2021/12/06 01:17:03;;;;;;;17.13;7.72;;;;;;;1.85;100.00;97284.22;4913363;29;20043;-54
2021/12/06 01:19:32;;;;;;;18.88;7.78;;;;;;;1.95;100.00;97280.63;4914248;29;20716;-54
2021/12/06 01:22:16;;;;;;;16.50;7.57;;;;;;;1.89;100.00;97285.88;4914387;29;20044;-54
2021/12/06 01:24:55;;;;;;;13.10;7.10;;;;;;;1.77;100.00;97296.38;4914549;29;20066;-54
2021/12/06 01:27:47;;;;;;;15.18;7.32;;;;;;;1.53;100.00;97295.91;4911933;29;20048;-54
2021/12/06 01:30:46;;;;;;;17.88;7.50;;;;;;;1.64;100.00;97295.75;4913564;29;20851;-54
2021/12/06 01:41:14;;;;;;;18.48;7.35;;;;;;;1.78;100.00;97305.78;4912230;29;20675;-55
2021/12/06 01:44:08;;;;;;;16.33;7.78;;;;;;;1.97;100.00;97299.47;4913520;29;20031;-54
2021/12/06 01:46:38;;;;;;;17.25;7.78;;;;;;;1.99;100.00;97300.28;4920178;29;20137;-56
2021/12/06 01:49:06;;;;;;;17.67;7.45;;;;;;;1.96;100.00;97302.88;4913643;29;20502;-55
2021/12/06 01:51:32;;;;;;;16.00;7.93;;;;;;;1.37;100.00;97313.28;4913981;29;20044;-55
2021/12/06 01:53:57;;;;;;;16.77;7.97;;;;;;;1.51;100.00;97300.25;4915430;29;20035;-55
2021/12/06 01:56:23;;;;;;;14.40;7.32;;;;;;;1.71;100.00;97298.19;4912954;29;20794;-55
2021/12/06 01:58:48;;;;;;;20.10;8.25;;;;;;;1.77;100.00;97298.97;4914963;29;20028;-54
2021/12/06 02:01:14;;;;;;;19.10;8.07;;;;;;;1.58;100.00;97299.28;4911833;28;20044;-54
2021/12/06 02:03:39;;;;;;;15.95;7.22;;;;;;;1.74;100.00;97295.53;4913821;29;20036;-54
2021/12/06 02:06:08;;;;;;;15.05;7.35;;;;;;;1.74;100.00;97292.97;4913729;28;20059;-54
2021/12/06 02:08:36;;;;;;;17.23;7.47;;;;;;;1.84;100.00;97295.38;4914363;29;20741;-55
2021/12/06 02:11:03;;;;;;;15.32;7.68;;;;;;;1.55;100.00;97301.88;4913868;28;20149;-54
2021/12/06 02:13:36;;;;;;;17.77;8.13;;;;;;;1.69;100.00;97299.94;4912984;29;20028;-56
2021/12/06 02:16:03;;;;;;;15.52;7.70;;;;;;;1.81;100.00;97298.03;4911781;29;20180;-56
2021/12/06 02:18:45;;;;;;;16.80;7.80;;;;;;;1.70;100.00;97305.91;4910387;29;20031;-55
2021/12/06 02:21:18;;;;;;;17.52;7.95;;;;;;;1.98;100.00;97303.72;4910609;29;20044;-55
2021/12/06 02:23:45;;;;;;;16.83;7.68;;;;;;;1.89;100.00;97301.28;4910574;29;20049;-55
2021/12/06 02:26:11;;;;;;;15.25;6.95;;;;;;;1.72;100.00;97304.16;4911433;29;20039;-54
2021/12/06 02:28:38;;;;;;;16.23;7.40;;;;;;;1.87;100.00;97308.19;4911189;29;20050;-56
2021/12/06 02:31:04;;;;;;;18.50;8.02;;;;;;;2.04;100.00;97306.19;4911226;29;20713;-55
2021/12/06 02:33:29;;;;;;;15.07;7.55;;;;;;;1.66;100.00;97309.41;4912476;29;20032;-55
2021/12/06 02:35:55;;;;;;;15.00;7.60;;;;;;;2.03;100.00;97307.06;4911995;29;20135;-55
2021/12/06 02:38:23;;;;;;;16.35;8.77;;;;;;;2.10;100.00;97305.22;4911377;29;20028;-54
2021/12/06 02:40:51;;;;;;;16.40;7.38;;;;;;;1.51;100.00;97315.66;4912079;28;20447;-54
2021/12/06 02:43:17;;;;;;;15.48;7.45;;;;;;;1.34;100.00;97311.63;4911527;29;20032;-55
2021/12/06 02:45:44;;;;;;;20.35;8.43;;;;;;;1.54;100.00;97311.31;4911153;28;20508;-54
2021/12/06 02:48:12;;;;;;;15.93;7.85;;;;;;;1.67;100.00;97314.53;4912898;29;20653;-55
2021/12/06 02:50:46;;;;;;;19.95;8.55;;;;;;;1.78;100.00;97316.06;4910037;28;20697;-55
2021/12/06 02:53:14;;;;;;;16.95;7.63;;;;;;;1.59;100.00;97318.09;4911288;29;20539;-54
2021/12/06 02:55:42;;;;;;;14.05;7.07;;;;;;;1.75;100.00;97314.41;4910323;28;20052;-55
2021/12/06 03:01:48;;;;;;;17.92;8.00;;;;;;;1.71;100.00;97313.63;4917092;29;20054;-55
2021/12/06 03:04:14;;;;;;;17.92;8.10;;;;;;;1.69;100.00;97317.94;4910586;29;20028;-54
2021/12/06 03:06:40;;;;;;;20.58;8.20;;;;;;;1.86;100.00;97321.94;4909603;29;20141;-55
2021/12/06 03:09:13;;;;;;;19.90;8.55;;;;;;;2.16;100.00;97324.84;4909368;29;20103;-55
2021/12/06 03:11:59;;;;;;;16.92;7.55;;;;;;;1.41;100.00;97330.34;4909824;29;20032;-56
2021/12/06 03:14:27;;;;;;;15.73;7.63;;;;;;;1.70;100.00;97327.31;4909846;29;20160;-55
2021/12/06 03:16:57;;;;;;;15.88;7.90;;;;;;;1.72;100.00;97330.72;4910457;28;20044;-56
2021/12/06 03:19:23;;;;;;;17.60;7.78;;;;;;;1.78;100.00;97328.94;4908346;29;20142;-54
2021/12/06 03:21:50;;;;;;;21.48;8.73;;;;;;;2.06;100.00;97332.72;4911535;29;20769;-55
2021/12/06 03:24:16;;;;;;;17.38;8.18;;;;;;;1.79;100.00;97339.19;4911427;29;20044;-56
2021/12/06 03:27:01;;;;;;;18.40;8.32;;;;;;;1.59;100.00;97343.81;4909014;28;20204;-56
2021/12/06 03:29:28;;;;;;;20.85;8.75;;;;;;;1.63;100.00;97356.56;4908852;29;20040;-55
2021/12/06 03:32:16;;;;;;;18.13;7.88;;;;;;;1.74;100.00;97359.81;4909315;28;20065;-55
2021/12/06 03:34:48;;;;;;;17.85;7.85;;;;;;;1.77;100.00;97365.81;4907907;29;20064;-55
2021/12/06 03:37:15;;;;;;;16.47;7.47;;;;;;;1.57;100.00;97369.53;4908825;29;20044;-56
2021/12/06 03:39:45;;;;;;;14.70;7.40;;;;;;;1.61;100.00;97370.34;4909959;29;20055;-54
2021/12/06 03:42:14;;;;;;;16.25;7.22;;;;;;;1.84;100.00;97369.97;4910158;28;20070;-55
2021/12/06 03:44:43;;;;;;;15.15;7.15;;;;;;;1.79;100.00;97372.63;4909636;29;20245;-55
2021/12/06 03:47:16;;;;;;;17.00;8.00;;;;;;;1.96;100.00;97377.47;4909805;29;20655;-55
2021/12/06 03:49:44;;;;;;;18.23;7.82;;;;;;;1.70;100.00;97375.34;4910316;29;20056;-54
2021/12/06 03:52:13;;;;;;;16.55;7.80;;;;;;;1.34;100.00;97381.00;4909824;29;20473;-55
2021/12/06 03:54:43;;;;;;;21.42;7.78;;;;;;;1.63;100.00;97376.31;4908142;29;20027;-54
2021/12/06 03:57:17;;;;;;;13.95;7.00;;;;;;;1.56;100.00;97375.53;4909657;29;20048;-57
2021/12/06 03:59:45;;;;;;;21.02;7.72;;;;;;;1.66;100.00;97384.81;4909603;29;20413;-55
2021/12/06 04:02:14;;;;;;;14.88;7.53;;;;;;;1.67;100.00;97383.97;4910043;29;20040;-56
2021/12/06 04:04:40;;;;;;;15.50;7.07;;;;;;;1.61;100.00;97384.03;4909063;29;20035;-55
2021/12/06 04:07:11;;;;;;;15.00;7.75;;;;;;;1.42;100.00;97382.63;4908410;29;20037;-55
2021/12/06 04:09:37;;;;;;;17.38;7.85;;;;;;;1.55;100.00;97386.69;4909350;29;20726;-55
2021/12/06 04:12:06;;;;;;;15.80;7.43;;;;;;;1.52;100.00;97384.16;4909187;29;20793;-57
2021/12/06 04:14:31;;;;;;;15.02;6.95;;;;;;;1.97;100.00;97388.59;4908725;29;20028;-56
2021/12/06 04:16:57;;;;;;;18.02;7.57;;;;;;;2.06;100.00;97389.31;4908922;29;20051;-57
2021/12/06 04:19:22;;;;;;;13.88;7.20;;;;;;;2.05;100.00;97400.47;4912273;29;20817;-53
2021/12/06 04:21:48;;;;;;;14.63;7.00;;;;;;;1.91;100.00;97408.44;4909898;29;20127;-55
2021/12/06 04:24:17;;;;;;;17.30;7.95;;;;;;;1.80;100.00;97406.88;4911580;29;20035;-53
2021/12/06 04:26:48;;;;;;;15.77;7.68;;;;;;;1.81;100.00;97411.16;4914096;28;20044;-56
2021/12/06 04:29:19;;;;;;;17.27;7.45;;;;;;;1.65;100.00;97411.38;4912376;29;20433;-53
2021/12/06 04:31:49;;;;;;;20.40;8.30;;;;;;;1.71;100.00;97419.03;4914055;28;20051;-54
2021/12/06 04:34:14;;;;;;;14.38;7.60;;;;;;;1.66;100.00;97412.25;4898685;29;20066;-55
2021/12/06 04:36:42;;;;;;;16.58;7.50;;;;;;;1.82;100.00;97418.00;4913289;28;20036;-54
2021/12/06 04:39:13;;;;;;;17.08;8.48;;;;;;;1.89;100.00;97417.91;4916255;29;20023;-55
2021/12/06 04:41:38;;;;;;;15.52;7.55;;;;;;;1.81;100.00;97426.59;4914130;28;20053;-54
2021/12/06 04:44:07;;;;;;;16.05;7.60;;;;;;;1.62;100.00;97432.00;4913980;29;20028;-53
2021/12/06 04:46:33;;;;;;;17.63;7.40;;;;;;;1.76;100.00;97429.22;4913044;29;20052;-55
2021/12/06 04:49:02;;;;;;;17.25;7.57;;;;;;;1.83;100.00;97430.84;4913602;29;20032;-53
2021/12/06 04:51:27;;;;;;;17.05;7.60;;;;;;;1.76;100.00;97438.66;4914436;28;20046;-54
2021/12/06 04:53:53;;;;;;;12.93;6.45;;;;;;;1.69;100.00;97441.34;4912878;29;20031;-54
2021/12/06 04:56:27;;;;;;;15.35;7.40;;;;;;;1.91;100.00;97438.41;4912442;29;20050;-54
2021/12/06 04:59:27;;;;;;;15.75;7.53;;;;;;;1.88;100.00;97438.50;4914636;29;20112;-54
2021/12/06 05:02:06;;;;;;;14.85;7.47;;;;;;;1.69;100.00;97449.06;4911854;29;20040;-54
2021/12/06 05:04:37;;;;;;;16.05;7.25;;;;;;;1.93;100.00;97450.41;4912634;29;20539;-56
2021/12/06 05:07:26;;;;;;;15.20;7.22;;;;;;;1.65;100.00;97452.50;4913336;29;20249;-56
2021/12/06 05:09:59;;;;;;;15.32;6.93;;;;;;;1.68;100.00;97467.91;4912307;29;20019;-53
2021/12/06 05:12:27;;;;;;;14.68;7.07;;;;;;;1.73;100.00;97458.41;4913806;29;20064;-54
2021/12/06 05:14:54;;;;;;;15.20;7.28;;;;;;;1.92;100.00;97468.44;4912297;29;20391;-55
2021/12/06 05:17:22;;;;;;;14.27;6.97;;;;;;;1.99;100.00;97472.59;4912144;28;20047;-54
2021/12/06 05:19:48;;;;;;;19.42;8.25;;;;;;;1.91;100.00;97474.44;4913308;29;20040;-54
2021/12/06 05:22:14;;;;;;;14.25;7.05;;;;;;;1.80;100.00;97471.16;4912781;28;20131;-54
2021/12/06 05:24:47;;;;;;;15.02;7.50;;;;;;;1.92;100.00;97476.97;4912660;29;20028;-55
2021/12/06 05:27:19;;;;;;;14.38;7.30;;;;;;;1.68;100.00;97482.50;4913943;29;20047;-54
2021/12/06 05:29:51;;;;;;;;;;;;;;;1.86;100.00;97482.22;4913848;29;20039;-54
2021/12/06 05:32:17;;;;;;;13.85;6.85;;;;;;;1.84;100.00;97480.53;4911188;28;20377;-56
2021/12/06 05:34:44;;;;;;;17.80;7.60;;;;;;;1.74;100.00;97487.53;4912272;28;20032;-54
2021/12/06 05:37:13;;;;;;;17.88;7.85;;;;;;;1.53;100.00;97486.13;4910789;28;20626;-55
2021/12/06 05:39:38;;;;;;;19.10;9.65;;;;;;;1.95;100.00;97494.09;4911882;29;20039;-54
2021/12/06 05:42:14;;;;;;;15.18;7.30;;;;;;;1.74;100.00;97502.97;4911671;28;20040;-54
2021/12/06 05:44:42;;;;;;;15.20;8.13;;;;;;;1.45;100.00;97495.63;4914093;29;20035;-54
2021/12/06 05:47:09;;;;;;;15.63;7.50;;;;;;;1.40;100.00;97502.53;4920219;29;20067;-54
2021/12/06 05:49:34;;;;;;;16.05;7.63;;;;;;;1.54;100.00;97504.09;4911575;29;20044;-54
2021/12/06 05:52:06;;;;;;;15.93;7.72;;;;;;;1.89;100.00;97507.03;4909959;29;20060;-54
2021/12/06 05:54:33;;;;;;;16.75;7.95;;;;;;;1.80;100.00;97508.03;4913688;29;20035;-54
2021/12/06 05:57:01;;;;;;;16.17;8.23;;;;;;;1.80;100.00;97514.88;4911770;28;20040;-54
2021/12/06 05:59:39;;;;;;;17.17;7.97;;;;;;;1.70;100.00;97511.59;4925364;28;20592;-54
2021/12/06 06:02:10;;;;;;;16.58;8.40;;;;;;;1.64;100.00;97522.81;4910338;29;20040;-54
2021/12/06 06:04:47;;;;;;;18.38;8.55;;;;;;;1.67;100.00;97527.94;4917484;29;20024;-54
2021/12/06 06:07:13;;;;;;;20.90;9.43;;;;;;;1.74;100.00;97539.81;4914834;28;20506;-55
2021/12/06 06:09:38;;;;;;;39.45;14.05;;;;;;;1.75;100.00;97535.53;4914633;29;20091;-53
2021/12/06 06:12:04;;;;;;;48.63;15.77;;;;;;;1.66;100.00;97546.78;4915409;28;20040;-55
2021/12/06 06:14:38;;;;;;;37.75;14.18;;;;;;;1.95;100.00;97540.41;4916628;29;20060;-53
2021/12/06 06:17:09;;;;;;;26.90;10.10;;;;;;;1.81;100.00;97539.75;4915324;29;20040;-55
2021/12/06 06:19:37;;;;;;;19.08;8.82;;;;;;;1.81;100.00;97542.31;4916732;29;20019;-56
2021/12/06 06:22:03;;;;;;;19.58;8.40;;;;;;;1.71;100.00;97539.88;4914162;29;20490;-55
2021/12/06 06:24:29;;;;;;;19.17;8.77;;;;;;;1.58;100.00;97551.19;4916109;29;20490;-54
2021/12/06 06:27:14;;;;;;;18.67;8.93;;;;;;;1.63;100.00;97545.97;4916309;29;20040;-55
2021/12/06 06:29:42;;;;;;;19.75;8.82;;;;;;;1.64;100.00;97553.66;4915494;29;20059;-57
2021/12/06 06:32:10;;;;;;;21.88;8.93;;;;;;;1.61;100.00;97553.69;4913605;29;20032;-54
2021/12/06 06:34:38;;;;;;;15.27;8.27;;;;;;;1.43;100.00;97559.06;4923992;29;20681;-54
2021/12/06 06:37:12;;;;;;;19.35;8.55;;;;;;;1.53;100.00;97565.81;4914909;29;20032;-54
2021/12/06 06:39:38;;;;;;;19.38;9.40;;;;;;;1.65;100.00;97565.63;4916631;29;21063;-54
2021/12/06 06:42:06;;;;;;;18.38;9.35;;;;;;;1.50;100.00;97565.81;4913795;29;20119;-54
2021/12/06 06:44:34;;;;;;;14.75;8.18;;;;;;;1.77;100.00;97569.78;4914839;29;20115;-54
2021/12/06 06:46:59;;;;;;;16.67;8.02;;;;;;;1.96;100.00;97567.81;4913145;29;20106;-55
2021/12/06 06:49:25;;;;;;;20.98;10.15;;;;;;;1.86;100.00;97579.94;4916028;29;20044;-55
2021/12/06 06:51:50;;;;;;;17.20;7.00;;;;;;;4.67;100.00;97585.97;4913566;29;20044;-55
2021/12/06 06:54:16;;;;;;;19.35;9.20;;;;;;;3.01;100.00;97589.38;4914266;29;20043;-55
2021/12/06 06:56:41;;;;;;;22.75;10.07;;;;;;;3.94;100.00;97584.16;4909856;29;20087;-57
2021/12/06 06:59:07;;;;;;;27.35;12.63;;;;;;;4.20;100.00;97595.66;4917523;29;20079;-54
2021/12/06 07:01:32;;;;;;;33.42;12.50;;;;;;;4.73;100.00;97585.81;4912398;28;20036;-56
2021/12/06 07:04:16;;;;;;;273.17;29.27;;;;;;;4.35;100.00;97595.28;4922408;29;20087;-58
2021/12/06 07:06:44;;;;;;;94.32;15.23;;;;;;;4.55;100.00;97597.41;4912190;29;20060;-55
2021/12/06 07:09:10;;;;;;;290.75;31.67;;;;;;;6.20;100.00;97594.84;4922507;29;20053;-55
2021/12/06 07:11:44;;;;;;;101.47;18.92;;;;;;;5.83;100.00;97611.44;4912120;29;20058;-55
2021/12/06 07:14:12;;;;;;;1973.35;124.93;;;;;;;4.01;100.00;97602.94;4913733;29;20051;-56
2021/12/06 07:16:37;;;;;;;37.47;11.23;;;;;;;3.30;100.00;97601.75;4913772;29;20062;-57
2021/12/06 07:19:08;;;;;;;145.30;16.92;;;;;;;2.67;100.00;97606.25;4916565;29;20035;-55
2021/12/06 07:21:37;;;;;;;81.15;12.63;;;;;;;2.46;100.00;97609.13;4913566;29;20044;-56
2021/12/06 07:24:13;;;;;;;;;;;;;;;;;;;;;
2021/12/06 07:26:39;;;;;;;198.10;19.48;;;;;;;2.30;100.00;97623.97;4911210;29;20048;-56
2021/12/06 07:29:04;;;;;;;121.18;15.77;;;;;;;2.41;100.00;97623.78;4914222;29;20024;-55
2021/12/06 07:31:30;;;;;;;68.63;12.27;;;;;;;2.38;100.00;97622.13;4915669;28;20059;-56
2021/12/06 07:34:19;;;;;;;42.85;11.73;;;;;;;2.45;100.00;97618.59;4913892;29;20036;-55
2021/12/06 07:36:50;;;;;;;72.13;13.85;;;;;;;2.29;100.00;97629.97;4913608;29;20074;-55
2021/12/06 07:39:15;;;;;;;91.37;12.57;;;;;;;2.12;100.00;97643.91;4916115;29;20052;-55
2021/12/06 07:41:44;;;;;;;65.75;11.30;;;;;;;2.26;100.00;97645.44;4913900;29;20098;-54
2021/12/06 07:44:11;;;;;;;111.45;13.18;;;;;;;2.11;100.00;97646.50;4912355;29;20032;-55
2021/12/06 07:46:40;;;;;;;47.80;11.35;;;;;;;2.44;100.00;97652.91;4915264;29;20409;-58
2021/12/06 07:49:08;;;;;;;57.53;11.65;;;;;;;1.72;100.00;97659.81;4912258;29;20042;-57
2021/12/06 07:51:33;;;;;;;76.03;11.52;;;;;;;2.38;100.00;97655.59;4914329;29;20055;-57
2021/12/06 07:53:59;;;;;;;108.68;12.35;;;;;;;2.22;100.00;97654.94;4914612;29;20039;-55
2021/12/06 07:56:25;;;;;;;104.75;13.23;;;;;;;2.60;100.00;97661.28;4916756;29;20039;-56
2021/12/06 07:58:51;;;;;;;223.68;14.35;;;;;;;2.21;100.00;97663.53;4916175;29;20039;-56
2021/12/06 08:01:20;;;;;;;151.77;13.43;;;;;;;2.16;100.00;97664.47;4915470;29;20040;-57
2021/12/06 08:03:59;;;;;;;208.38;14.55;;;;;;;2.28;100.00;97664.31;4927326;29;20042;-59
2021/12/06 08:06:27;;;;;;;147.68;13.40;;;;;;;2.51;100.00;97657.09;4912784;28;20152;-58
2021/12/06 08:08:54;;;;;;;125.18;13.82;;;;;;;2.31;100.00;97662.53;4914501;29;20035;-56
2021/12/06 08:11:21;;;;;;;61.97;10.70;;;;;;;2.64;100.00;97667.25;4914252;28;20036;-57
2021/12/06 08:13:54;;;;;;;181.20;13.98;;;;;;;2.34;100.00;97669.38;4914760;29;20096;-55
2021/12/06 08:16:23;;;;;;;168.07;13.63;;;;;;;2.57;100.00;97666.47;4914394;29;20691;-58
2021/12/06 08:18:54;;;;;;;81.55;12.13;;;;;;;2.83;100.00;97668.69;4920853;29;20023;-57
2021/12/06 08:21:27;;;;;;;179.30;14.25;;;;;;;2.33;100.00;97666.81;4913219;28;20041;-55
2021/12/06 08:23:57;;;;;;;277.60;15.80;;;;;;;2.42;100.00;97667.53;4911300;29;20107;-55
2021/12/06 08:26:28;;;;;;;208.73;14.68;;;;;;;2.09;100.00;97663.69;4914687;29;20040;-56
2021/12/06 08:28:55;;;;;;;249.85;15.18;;;;;;;2.38;100.00;97681.31;4913834;29;20027;-58
2021/12/06 08:31:29;;;;;;;135.27;14.23;;;;;;;2.77;100.00;97688.50;4914525;29;20513;-57
2021/12/06 08:33:56;;;;;;;79.43;13.18;;;;;;;2.81;100.00;97695.31;4912135;29;20039;-55
2021/12/06 08:36:25;;;;;;;57.67;11.25;;;;;;;2.81;100.00;97696.19;4914357;29;20513;-56
2021/12/06 08:38:54;;;;;;;117.88;13.32;;;;;;;2.67;100.00;97711.81;4915528;29;20024;-56
2021/12/06 08:41:27;;;;;;;120.88;13.73;;;;;;;2.96;100.00;97701.94;4912148;28;20037;-55
2021/12/06 08:44:03;;;;;;;104.65;13.32;;;;;;;2.89;100.00;97704.63;4916372;29;20032;-56
2021/12/06 08:46:39;;;;;;;132.75;13.07;;;;;;;2.31;100.00;97708.84;4913069;28;20285;-55
2021/12/06 08:49:09;;;;;;;155.00;13.80;;;;;;;2.45;100.00;97708.69;4914045;29;20032;-55
2021/12/06 08:51:40;;;;;;;83.38;13.45;;;;;;;2.63;100.00;97706.75;4912206;28;20063;-55
2021/12/06 08:54:08;;;;;;;36.25;12.00;;;;;;;2.95;100.00;97702.84;4916361;29;20027;-59
2021/12/06 08:56:37;;;;;;;45.42;12.70;;;;;;;2.61;100.00;97711.91;4913003;29;20088;-55
2021/12/06 08:59:09;;;;;;;91.43;13.55;;;;;;;2.05;100.00;97718.63;4921466;29;20559;-57
2021/12/06 09:01:42;;;;;;;139.80;13.70;;;;;;;2.53;100.00;97718.03;4913132;29;20183;-55
2021/12/06 09:04:12;;;;;;;85.65;12.90;;;;;;;2.81;100.00;97709.06;4914167;29;20043;-56
2021/12/06 09:06:50;;;;;;;117.03;13.48;;;;;;;2.85;100.00;97710.72;4913506;28;20031;-56
2021/12/06 09:09:16;;;;;;;103.80;12.43;;;;;;;2.67;100.00;97719.53;4913302;29;20086;-56
2021/12/06 09:11:49;;;;;;;85.38;12.95;;;;;;;2.46;100.00;97717.25;4917126;29;20434;-56
2021/12/06 09:14:16;;;;;;;128.90;13.32;;;;;;;2.76;100.00;97728.88;4916830;29;20028;-57
2021/12/06 09:16:44;;;;;;;57.13;12.20;;;;;;;3.18;100.00;97731.69;4917066;29;20110;-56
2021/12/06 09:19:16;;;;;;;64.88;11.60;;;;;;;2.87;100.00;97727.00;4915061;29;20031;-57
2021/12/06 09:21:43;;;;;;;104.43;12.73;;;;;;;2.83;100.00;97729.63;4917151;28;20039;-56
2021/12/06 09:24:17;;;;;;;56.42;11.52;;;;;;;3.03;100.00;97732.78;4916725;29;20027;-56
2021/12/06 09:26:46;;;;;;;51.78;11.93;;;;;;;2.98;100.00;97736.28;4916233;28;20028;-56
2021/12/06 09:29:18;;;;;;;46.40;11.82;;;;;;;3.28;100.00;97735.81;4914766;29;20052;-57
2021/12/06 09:31:44;;;;;;;69.07;12.47;;;;;;;2.71;100.00;97733.22;4914642;28;20032;-57
2021/12/06 09:34:12;;;;;;;137.65;13.80;;;;;;;2.36;100.00;97734.53;4914070;29;20036;-58
2021/12/06 09:36:37;;;;;;;107.85;12.60;;;;;;;2.84;100.00;97731.34;4917007;28;20576;-55
2021/12/06 09:39:22;;;;;;;103.03;12.27;;;;;;;2.93;100.00;97735.50;4918296;29;20031;-58
2021/12/06 09:41:48;;;;;;;83.07;11.80;;;;;;;2.70;100.00;97728.94;4922984;29;20058;-57
2021/12/06 09:44:16;;;;;;;50.45;11.48;;;;;;;2.92;100.00;97728.66;4915776;29;20036;-56
2021/12/06 09:46:48;;;;;;;31.23;11.77;;;;;;;3.25;100.00;97743.59;4915193;28;20044;-58
2021/12/06 09:49:36;;;;;;;43.25;12.05;;;;;;;2.74;100.00;97740.06;4916448;29;20035;-57
2021/12/06 09:52:09;;;;;;;29.00;12.43;;;;;;;3.18;100.00;97735.97;4916942;28;20757;-56
2021/12/06 09:54:38;;;;;;;39.30;12.18;;;;;;;3.16;100.00;97733.44;4914838;29;20098;-56
2021/12/06 09:57:09;;;;;;;36.42;13.55;;;;;;;3.25;100.00;97732.41;4916108;28;20173;-58
2021/12/06 09:59:40;;;;;;;29.15;13.20;;;;;;;3.35;100.00;97730.56;4916969;29;20724;-56
2021/12/06 10:02:10;;;;;;;29.88;11.38;;;;;;;3.08;100.00;97727.53;4915014;29;20050;-55
2021/12/06 10:04:44;;;;;;;23.17;11.30;;;;;;;2.86;100.00;97727.84;4913711;29;20122;-57
2021/12/06 10:07:09;;;;;;;22.92;10.57;;;;;;;3.48;100.00;97729.47;4913794;28;20156;-56
2021/12/06 10:09:38;;;;;;;29.65;10.88;;;;;;;3.19;100.00;97733.38;4914668;29;20746;-56
2021/12/06 10:12:05;;;;;;;23.42;10.70;;;;;;;2.94;100.00;97724.31;4915152;29;20043;-56
2021/12/06 10:14:31;;;;;;;29.02;11.60;;;;;;;3.36;100.00;97727.94;4915741;29;20122;-57
2021/12/06 10:17:03;;;;;;;25.70;10.82;;;;;;;3.87;100.00;97727.06;4919451;29;20166;-56
2021/12/06 10:19:32;;;;;;;26.65;11.70;;;;;;;3.28;100.00;97733.22;4914240;29;20036;-59
2021/12/06 10:22:03;;;;;;;24.83;11.30;;;;;;;3.13;100.00;97728.31;4915640;28;20047;-57
2021/12/06 10:24:42;;;;;;;;;;;;;;;;;;;;;
2021/12/06 10:27:11;;;;;;;19.00;8.95;;;;;;;3.39;100.00;97732.22;4916117;28;20568;-54
2021/12/06 10:29:47;;;;;;;22.48;10.50;;;;;;;3.23;100.00;97729.03;4915849;29;20114;-53
2021/12/06 10:32:32;;;;;;;27.42;12.43;;;;;;;3.37;100.00;97724.50;4913620;29;20047;-58
2021/12/06 10:35:11;;;;;;;22.65;11.43;;;;;;;3.05;100.00;97725.00;4915104;29;20047;-55
2021/12/06 10:37:55;;;;;;;25.50;10.93;;;;;;;3.41;100.00;97733.88;4914049;29;20129;-56
2021/12/06 10:40:30;;;;;;;24.48;12.13;;;;;;;3.12;100.00;97726.59;4916306;29;20078;-56
2021/12/06 10:42:57;;;;;;;22.40;9.23;;;;;;;3.86;100.00;97727.97;4921884;29;20028;-55
2021/12/06 10:45:35;;;;;;;22.27;10.70;;;;;;;3.70;100.00;97718.81;4915071;28;20157;-56
2021/12/06 10:48:29;;;;;;;20.50;9.73;;;;;;;3.47;100.00;97710.59;4916702;29;20573;-55
2021/12/06 10:50:54;;;;;;;20.00;10.38;;;;;;;3.31;100.00;97721.16;4915269;28;20122;-56
2021/12/06 10:53:26;;;;;;;20.98;10.38;;;;;;;3.58;100.00;97718.09;4915875;29;20079;-57
2021/12/06 10:56:16;;;;;;;22.10;10.90;;;;;;;3.66;100.00;97723.16;4914191;29;20044;-56
2021/12/06 10:58:51;;;;;;;20.50;10.95;;;;;;;3.69;100.00;97723.09;4915129;29;20561;-55
2021/12/06 11:01:30;;;;;;;21.83;10.27;;;;;;;3.20;100.00;97719.63;4913339;29;20075;-55
2021/12/06 11:03:57;;;;;;;20.13;10.20;;;;;;;3.47;100.00;97720.03;4913301;29;20056;-55
2021/12/06 11:06:42;;;;;;;21.17;10.43;;;;;;;3.75;100.00;97716.97;4913149;29;20054;-59
2021/12/06 11:09:17;;;;;;;19.88;9.90;;;;;;;3.61;100.00;97715.50;4914536;29;20035;-55
2021/12/06 11:11:49;;;;;;;19.70;9.50;;;;;;;3.66;100.00;97723.16;4915000;29;20111;-55
2021/12/06 11:14:22;;;;;;;18.42;9.20;;;;;;;4.22;100.00;97715.22;4913066;29;20641;-55
2021/12/06 11:16:56;;;;;;;19.00;9.85;;;;;;;3.94;100.00;97717.50;4912781;29;20044;-55
2021/12/06 11:19:39;;;;;;;19.13;10.23;;;;;;;3.96;100.00;97718.31;4913662;29;20497;-55
2021/12/06 11:22:07;;;;;;;23.05;10.00;;;;;;;4.17;100.00;97704.13;4913973;29;20091;-55
2021/12/06 11:24:41;;;;;;;16.45;7.47;;;;;;;4.61;100.00;97710.97;4915419;29;20043;-57
2021/12/06 11:27:10;;;;;;;23.63;9.65;;;;;;;4.63;100.00;97713.47;4915188;29;20526;-55
2021/12/06 11:29:39;;;;;;;15.43;7.90;;;;;;;4.63;95.37;97708.31;4915921;29;20054;-54
2021/12/06 11:32:31;;;;;;;17.70;9.65;;;;;;;4.75;100.00;97707.22;4914639;28;20063;-55
2021/12/06 11:35:18;;;;;;;15.75;8.73;;;;;;;4.72;100.00;97708.13;4912256;29;20028;-56
2021/12/06 11:37:51;;;;;;;16.85;9.00;;;;;;;4.69;100.00;97700.44;4913543;29;20152;-56
2021/12/06 11:40:29;;;;;;;18.73;10.15;;;;;;;4.74;100.00;97710.66;4913933;28;20834;-55
2021/12/06 11:43:03;;;;;;;20.63;10.88;;;;;;;5.02;100.00;97710.91;4911341;29;20032;-57
2021/12/06 11:45:33;;;;;;;16.83;9.60;;;;;;;4.92;98.89;97709.41;4912890;28;20039;-56
2021/12/06 11:48:03;;;;;;;17.13;9.50;;;;;;;4.92;95.39;97714.56;4913407;29;20035;-54
2021/12/06 11:50:30;;;;;;;20.63;10.18;;;;;;;4.88;94.14;97711.22;4913865;29;20596;-56
2021/12/06 11:53:08;;;;;;;18.10;9.93;;;;;;;4.87;93.82;97717.28;4913417;29;20047;-55